Time;durP1;ratioP1;P1;durP2;ratioP2;P2;SDS_P1;SDS_P2;PMS_P1;PMS_P2;Temp;Humidity;BMP_temperature;BMP_pressure;BME280_temperature;BME280_humidity;BME280_pressure;Samples;Min_cycle;Max_cycle;Signal;HPM_P1;HPM_P2
2021/05/17 00:00:32;;;;;;;21.98;11.68;;;;;;;;;;5061499;28;20028;-53
2021/05/17 00:03:00;;;;;;;10.65;7.45;;;;;;;;;;5061166;28;20618;-54
2021/05/17 00:05:26;;;;;;;19.40;11.23;;;;;;;;;;5078516;28;20028;-54
2021/05/17 00:07:52;;;;;;;8.48;5.88;;;;;;;;;;5113807;28;20032;-54
2021/05/17 00:10:21;;;;;;;16.92;8.85;;;;;;;;;;5113660;28;20490;-53
2021/05/17 00:12:50;;;;;;;15.25;10.00;;;;;;;;;;5113474;28;20063;-54
2021/05/17 00:15:17;;;;;;;24.92;14.75;;;;;;;;;;5113941;28;20020;-52
2021/05/17 00:17:45;;;;;;;19.58;10.85;;;;;;;;;;5113824;28;20024;-53
2021/05/17 00:20:12;;;;;;;20.65;10.88;;;;;;;;;;5113836;28;20023;-54
2021/05/17 00:22:38;;;;;;;22.75;15.02;;;;;;;;;;5113667;28;20026;-54
2021/05/17 00:25:05;;;;;;;27.40;13.73;;;;;;;;;;5113583;28;20517;-54
2021/05/17 00:27:31;;;;;;;18.50;11.85;;;;;;;;;;5113589;28;20036;-53
2021/05/17 00:29:57;;;;;;;21.45;14.45;;;;;;;;;;5113595;28;20546;-54
2021/05/17 00:32:24;;;;;;;24.25;14.98;;;;;;;;;;5113460;28;20080;-55
2021/05/17 00:34:50;;;;;;;21.55;13.13;;;;;;;;;;5113601;28;20386;-50
2021/05/17 00:37:16;;;;;;;22.23;14.43;;;;;;;;;;5113553;28;20031;-50
2021/05/17 00:39:43;;;;;;;374.00;27.35;;;;;;;;;;5113560;28;20042;-52
2021/05/17 00:42:09;;;;;;;19.13;10.70;;;;;;;;;;5113298;28;20032;-54
2021/05/17 00:44:39;;;;;;;21.33;13.52;;;;;;;;;;5113340;28;20408;-53
2021/05/17 00:47:08;;;;;;;22.25;12.55;;;;;;;;;;5113403;28;20058;-52
2021/05/17 00:49:34;;;;;;;14.07;9.10;;;;;;;;;;5112144;28;20471;-51
2021/05/17 00:52:03;;;;;;;31.35;20.30;;;;;;;;;;5113309;28;20491;-51
2021/05/17 00:54:31;;;;;;;53.28;27.92;;;;;;;;;;5113282;28;20011;-52
2021/05/17 00:56:57;;;;;;;16.92;10.48;;;;;;;;;;5113235;28;20016;-51
2021/05/17 00:59:26;;;;;;;26.30;14.90;;;;;;;;;;5113403;28;20031;-52
2021/05/17 01:01:52;;;;;;;26.80;18.15;;;;;;;;;;5113504;28;20047;-53
2021/05/17 01:04:18;;;;;;;21.50;11.82;;;;;;;;;;5113372;28;20099;-52
2021/05/17 01:06:48;;;;;;;11.35;8.02;;;;;;;;;;5116368;28;20020;-47
2021/05/17 01:09:15;;;;;;;15.75;8.60;;;;;;;;;;5117215;28;20137;-52
2021/05/17 01:11:41;;;;;;;24.00;13.63;;;;;;;;;;5116719;28;20043;-49
2021/05/17 01:14:08;;;;;;;17.60;10.80;;;;;;;;;;5117167;28;20049;-51
2021/05/17 01:16:34;;;;;;;10.95;8.07;;;;;;;;;;5117046;28;20508;-50
2021/05/17 01:19:00;;;;;;;8.85;6.10;;;;;;;;;;5116813;28;20027;-51
2021/05/17 01:21:34;;;;;;;16.85;9.20;;;;;;;;;;5116817;28;20028;-51
2021/05/17 01:24:00;;;;;;;13.95;7.75;;;;;;;;;;5116734;28;20536;-49
2021/05/17 01:26:30;;;;;;;9.60;8.60;;;;;;;;;;5116814;28;20110;-49
2021/05/17 01:28:57;;;;;;;19.30;11.23;;;;;;;;;;5116677;28;20071;-49
2021/05/17 01:31:24;;;;;;;50.85;32.88;;;;;;;;;;5116705;28;20070;-47
2021/05/17 01:33:51;;;;;;;33.38;19.65;;;;;;;;;;5116723;28;20015;-47
2021/05/17 01:36:18;;;;;;;27.33;17.73;;;;;;;;;;5116722;28;20666;-46
2021/05/17 01:38:45;;;;;;;17.23;12.50;;;;;;;;;;5116549;28;20483;-46
2021/05/17 01:41:13;;;;;;;17.63;13.75;;;;;;;;;;5116261;28;20036;-48
2021/05/17 01:43:45;;;;;;;28.58;17.90;;;;;;;;;;5116488;28;20098;-48
2021/05/17 01:46:15;;;;;;;23.20;16.42;;;;;;;;;;5116388;28;20015;-48
2021/05/17 01:48:42;;;;;;;19.38;13.63;;;;;;;;;;5116302;28;20364;-47
2021/05/17 01:51:13;;;;;;;48.22;33.45;;;;;;;;;;5116307;28;20023;-47
2021/05/17 01:53:39;;;;;;;43.08;27.98;;;;;;;;;;5116278;28;20019;-50
2021/05/17 01:56:06;;;;;;;26.17;17.67;;;;;;;;;;5116220;28;20024;-48
2021/05/17 01:58:33;;;;;;;25.50;18.23;;;;;;;;;;5116140;28;20061;-47
2021/05/17 02:01:04;;;;;;;39.90;25.33;;;;;;;;;;5116168;28;20024;-48
2021/05/17 02:03:30;;;;;;;21.75;13.88;;;;;;;;;;5116051;28;20011;-48
2021/05/17 02:05:59;;;;;;;20.55;14.43;;;;;;;;;;5116010;28;20073;-50
2021/05/17 02:08:28;;;;;;;22.48;15.65;;;;;;;;;;5115812;28;20602;-46
2021/05/17 02:10:54;;;;;;;26.75;18.40;;;;;;;;;;5115735;28;20092;-47
2021/05/17 02:13:21;;;;;;;19.52;15.27;;;;;;;;;;5115882;28;20379;-47
2021/05/17 02:15:48;;;;;;;50.72;33.55;;;;;;;;;;5115501;28;20023;-48
2021/05/17 02:18:17;;;;;;;33.20;20.73;;;;;;;;;;5115762;28;20024;-50
2021/05/17 02:20:43;;;;;;;36.15;23.00;;;;;;;;;;5115734;28;20032;-47
2021/05/17 02:23:10;;;;;;;44.75;30.45;;;;;;;;;;5115639;28;20471;-47
2021/05/17 02:26:05;;;;;;;33.65;23.80;;;;;;;;;;5115687;28;20038;-47
2021/05/17 02:28:32;;;;;;;22.85;17.63;;;;;;;;;;5033005;28;20087;-46
2021/05/17 02:30:59;;;;;;;23.90;15.30;;;;;;;;;;5033012;28;20033;-47
2021/05/17 02:33:25;;;;;;;35.38;20.83;;;;;;;;;;5032969;28;20087;-48
2021/05/17 02:35:51;;;;;;;31.58;21.85;;;;;;;;;;5032819;28;20033;-47
2021/05/17 02:38:17;;;;;;;21.98;17.00;;;;;;;;;;5032960;28;20037;-48
2021/05/17 02:40:43;;;;;;;22.08;16.88;;;;;;;;;;5032927;28;20085;-48
2021/05/17 02:43:13;;;;;;;22.13;15.38;;;;;;;;;;5032809;28;20033;-47
2021/05/17 02:45:42;;;;;;;20.17;14.43;;;;;;;;;;5032914;28;20076;-48
2021/05/17 02:48:15;;;;;;;17.58;14.57;;;;;;;;;;5032636;28;20520;-49
2021/05/17 02:50:44;;;;;;;25.08;17.13;;;;;;;;;;5032530;28;20064;-49
2021/05/17 02:53:29;;;;;;;22.83;15.32;;;;;;;;;;5032636;28;20096;-48
2021/05/17 02:55:55;;;;;;;17.88;13.82;;;;;;;;;;5032633;28;20021;-49
2021/05/17 02:58:23;;;;;;;17.67;13.60;;;;;;;;;;5032607;28;20038;-49
2021/05/17 03:01:00;;;;;;;17.50;14.25;;;;;;;;;;5032496;28;20029;-48
2021/05/17 03:03:27;;;;;;;19.42;14.60;;;;;;;;;;5032443;28;20108;-49
2021/05/17 03:06:01;;;;;;;23.38;14.73;;;;;;;;;;5102707;28;20035;-49
2021/05/17 03:08:30;;;;;;;19.73;14.32;;;;;;;;;;5114902;28;20387;-49
2021/05/17 03:10:58;;;;;;;21.60;13.77;;;;;;;;;;5114757;28;20410;-49
2021/05/17 03:13:26;;;;;;;21.35;14.18;;;;;;;;;;5114756;28;20437;-48
2021/05/17 03:15:52;;;;;;;17.05;13.95;;;;;;;;;;5114763;28;20023;-49
2021/05/17 03:18:18;;;;;;;20.63;13.88;;;;;;;;;;5114945;28;20027;-49
2021/05/17 03:20:44;;;;;;;21.88;15.30;;;;;;;;;;5114601;28;20379;-49
2021/05/17 03:23:12;;;;;;;19.33;13.55;;;;;;;;;;5114711;28;20034;-50
2021/05/17 03:25:40;;;;;;;20.35;15.07;;;;;;;;;;5114601;28;20432;-48
2021/05/17 03:28:06;;;;;;;29.48;19.85;;;;;;;;;;5113847;28;20447;-49
2021/05/17 03:30:32;;;;;;;36.30;18.55;;;;;;;;;;5114462;28;20047;-49
2021/05/17 03:32:58;;;;;;;20.23;14.55;;;;;;;;;;5114406;28;20092;-47
2021/05/17 03:35:24;;;;;;;19.15;15.20;;;;;;;;;;5114530;28;20022;-49
2021/05/17 03:37:50;;;;;;;18.00;14.32;;;;;;;;;;5114371;28;20065;-48
2021/05/17 03:40:17;;;;;;;22.85;15.95;;;;;;;;;;5114409;28;20055;-47
2021/05/17 03:42:43;;;;;;;22.08;15.25;;;;;;;;;;5114487;28;20530;-49
2021/05/17 03:45:11;;;;;;;23.27;15.00;;;;;;;;;;5114077;28;20023;-49
2021/05/17 03:47:37;;;;;;;18.33;14.57;;;;;;;;;;5114350;28;20031;-49
2021/05/17 03:50:04;;;;;;;19.40;14.27;;;;;;;;;;5114244;28;20383;-47
2021/05/17 03:52:31;;;;;;;19.27;14.02;;;;;;;;;;5114104;28;20032;-47
2021/05/17 03:54:57;;;;;;;18.15;14.60;;;;;;;;;;5114125;28;20429;-47
2021/05/17 03:57:23;;;;;;;18.83;14.90;;;;;;;;;;5114032;28;20076;-49
2021/05/17 03:59:49;;;;;;;17.02;12.15;;;;;;;;;;5113999;28;20467;-49
2021/05/17 04:02:17;;;;;;;15.63;12.05;;;;;;;;;;5114045;28;20094;-52
2021/05/17 04:05:05;;;;;;;15.38;12.20;;;;;;;;;;5112500;28;20027;-49
2021/05/17 04:15:45;;;;;;;14.80;12.10;;;;;;;;;;5114019;28;20031;-49
2021/05/17 04:18:11;;;;;;;12.80;11.30;;;;;;;;;;5113869;28;20034;-50
2021/05/17 04:20:38;;;;;;;18.80;12.32;;;;;;;;;;5113424;28;20391;-49
2021/05/17 04:23:04;;;;;;;16.42;11.63;;;;;;;;;;5113937;28;20077;-49
2021/05/17 04:25:30;;;;;;;13.07;11.60;;;;;;;;;;5113869;28;20061;-49
2021/05/17 04:27:56;;;;;;;14.95;13.18;;;;;;;;;;5113600;28;20039;-49
2021/05/17 04:30:22;;;;;;;16.42;13.20;;;;;;;;;;5113618;28;20020;-49
2021/05/17 04:32:48;;;;;;;15.70;11.95;;;;;;;;;;5113739;28;20094;-49
2021/05/17 04:35:14;;;;;;;13.90;12.18;;;;;;;;;;5113614;28;20107;-49
2021/05/17 04:37:41;;;;;;;15.52;11.43;;;;;;;;;;5113586;28;20035;-48
2021/05/17 04:40:08;;;;;;;16.25;12.93;;;;;;;;;;5115780;28;20387;-48
2021/05/17 04:42:34;;;;;;;14.52;12.15;;;;;;;;;;5117924;28;20171;-49
2021/05/17 04:45:00;;;;;;;17.63;12.13;;;;;;;;;;5117741;28;20023;-49
2021/05/17 04:47:26;;;;;;;15.05;12.50;;;;;;;;;;5117849;28;20040;-48
2021/05/17 04:49:52;;;;;;;17.27;11.57;;;;;;;;;;5117748;28;20379;-49
2021/05/17 04:52:18;;;;;;;13.70;11.23;;;;;;;;;;5117531;28;20508;-48
2021/05/17 04:54:47;;;;;;;16.38;12.82;;;;;;;;;;5117834;28;20031;-48
2021/05/17 04:57:13;;;;;;;17.80;14.05;;;;;;;;;;5117636;28;20019;-49
2021/05/17 04:59:39;;;;;;;20.88;12.68;;;;;;;;;;5117367;28;20027;-48
2021/05/17 05:02:05;;;;;;;13.85;12.43;;;;;;;;;;5117688;28;20051;-49
2021/05/17 05:04:34;;;;;;;15.10;13.50;;;;;;;;;;5117203;28;20050;-48
2021/05/17 05:07:00;;;;;;;15.27;12.73;;;;;;;;;;5117069;28;20023;-49
2021/05/17 05:09:27;;;;;;;20.27;13.07;;;;;;;;;;5117394;28;20042;-49
2021/05/17 05:11:53;;;;;;;21.02;12.98;;;;;;;;;;5116976;28;20525;-49
2021/05/17 05:14:19;;;;;;;14.85;11.45;;;;;;;;;;5117211;28;20028;-46
2021/05/17 05:16:45;;;;;;;15.07;11.23;;;;;;;;;;5117271;28;20023;-49
2021/05/17 05:19:11;;;;;;;15.50;11.98;;;;;;;;;;5117139;28;20020;-49
2021/05/17 05:21:37;;;;;;;17.55;10.98;;;;;;;;;;5116969;28;20030;-49
2021/05/17 05:24:03;;;;;;;16.42;11.35;;;;;;;;;;5116888;28;20020;-48
2021/05/17 05:31:35;;;;;;;13.35;11.07;;;;;;;;;;5116994;28;20024;-48
2021/05/17 05:34:03;;;;;;;16.15;10.75;;;;;;;;;;5116634;28;20028;-48
2021/05/17 05:36:29;;;;;;;12.98;10.63;;;;;;;;;;5116521;28;20015;-48
2021/05/17 05:38:55;;;;;;;14.70;10.40;;;;;;;;;;5116581;28;20024;-47
2021/05/17 05:41:21;;;;;;;12.68;10.98;;;;;;;;;;5116512;28;20020;-46
2021/05/17 05:43:47;;;;;;;14.30;9.75;;;;;;;;;;5116661;28;20027;-50
2021/05/17 05:46:14;;;;;;;14.02;10.30;;;;;;;;;;5116546;28;20020;-52
2021/05/17 05:48:49;;;;;;;15.18;10.95;;;;;;;;;;5116214;28;20369;-46
2021/05/17 05:51:19;;;;;;;19.10;13.38;;;;;;;;;;5115501;28;20364;-48
2021/05/17 05:53:45;;;;;;;23.40;16.42;;;;;;;;;;5116296;28;20088;-49
2021/05/17 05:56:11;;;;;;;24.13;14.07;;;;;;;;;;5116273;28;20028;-48
2021/05/17 05:58:37;;;;;;;20.05;12.00;;;;;;;;;;5116149;28;20023;-49
2021/05/17 06:01:04;;;;;;;16.65;11.07;;;;;;;;;;5116578;28;20354;-49
2021/05/17 06:03:32;;;;;;;19.85;13.07;;;;;;;;;;5116112;28;20513;-49
2021/05/17 06:05:59;;;;;;;15.68;10.50;;;;;;;;;;5116281;28;20030;-49
2021/05/17 06:08:25;;;;;;;19.85;12.35;;;;;;;;;;5115898;28;20028;-49
2021/05/17 06:10:51;;;;;;;25.60;14.82;;;;;;;;;;5115655;28;20062;-49
2021/05/17 06:13:18;;;;;;;18.70;12.20;;;;;;;;;;5116069;28;20027;-49
2021/05/17 06:15:44;;;;;;;14.05;9.88;;;;;;;;;;5116046;28;20045;-49
2021/05/17 06:18:11;;;;;;;18.35;11.73;;;;;;;;;;5115831;28;20024;-48
2021/05/17 06:20:40;;;;;;;13.93;9.32;;;;;;;;;;5115584;28;20501;-50
2021/05/17 06:23:08;;;;;;;15.00;10.02;;;;;;;;;;5115900;28;20507;-50
2021/05/17 06:25:34;;;;;;;17.75;8.98;;;;;;;;;;5115923;28;20019;-49
2021/05/17 06:28:00;;;;;;;20.02;12.50;;;;;;;;;;5115555;28;20031;-49
2021/05/17 06:30:27;;;;;;;13.70;9.68;;;;;;;;;;5115686;28;20024;-49
2021/05/17 06:32:53;;;;;;;14.18;9.93;;;;;;;;;;5115437;28;20051;-49
2021/05/17 06:35:28;;;;;;;13.38;9.18;;;;;;;;;;5115505;28;20383;-49
2021/05/17 06:37:54;;;;;;;12.68;6.95;;;;;;;;;;5115658;28;20022;-47
2021/05/17 06:40:21;;;;;;;18.73;10.23;;;;;;;;;;5115559;28;20030;-49
2021/05/17 06:42:47;;;;;;;13.02;6.57;;;;;;;;;;5115585;28;20024;-49
2021/05/17 06:45:14;;;;;;;17.25;9.35;;;;;;;;;;5115318;28;20023;-48
2021/05/17 06:47:40;;;;;;;8.45;6.43;;;;;;;;;;5115161;28;20022;-48
2021/05/17 06:50:08;;;;;;;23.85;14.13;;;;;;;;;;5115174;28;20032;-49
2021/05/17 06:52:34;;;;;;;12.13;7.07;;;;;;;;;;5115175;28;20023;-49
2021/05/17 06:55:09;;;;;;;13.00;7.95;;;;;;;;;;5115197;28;20016;-50
2021/05/17 07:00:34;;;;;;;13.93;8.90;;;;;;;;;;5052380;28;20374;-48
2021/05/17 07:03:07;;;;;;;12.70;8.50;;;;;;;;;;5051551;28;20053;-49
2021/05/17 07:05:35;;;;;;;17.63;8.27;;;;;;;;;;5052167;28;20071;-49
2021/05/17 07:13:12;;;;;;;6.90;4.55;;;;;;;;;;5052378;28;20051;-49
2021/05/17 07:15:38;;;;;;;9.38;6.78;;;;;;;;;;5051866;28;20033;-48
2021/05/17 07:18:04;;;;;;;15.60;8.13;;;;;;;;;;5052193;28;20033;-48
2021/05/17 07:23:37;;;;;;;11.55;5.97;;;;;;;;;;5051864;28;20020;-49
2021/05/17 07:23:39;;;;;;;9.13;6.95;;;;;;;;;;5051535;28;20036;-48
2021/05/17 07:26:07;;;;;;;10.25;5.50;;;;;;;;;;5051763;28;20025;-49
2021/05/17 07:28:33;;;;;;;6.53;4.45;;;;;;;;;;5051561;28;20530;-48
2021/05/17 07:31:03;;;;;;;29.35;18.17;;;;;;;;;;5051598;28;20048;-50
2021/05/17 07:33:29;;;;;;;9.68;5.63;;;;;;;;;;5051678;28;20029;-49
2021/05/17 07:35:55;;;;;;;11.30;5.97;;;;;;;;;;5077236;28;20036;-49
2021/05/17 07:38:22;;;;;;;17.65;8.93;;;;;;;;;;5114269;28;20027;-48
2021/05/17 07:40:48;;;;;;;9.57;4.75;;;;;;;;;;5108882;28;20016;-49
2021/05/17 07:43:14;;;;;;;5.82;4.70;;;;;;;;;;5093577;28;20495;-50
2021/05/17 07:45:40;;;;;;;8.52;4.63;;;;;;;;;;5093592;28;20114;-50
2021/05/17 07:48:10;;;;;;;8.80;4.90;;;;;;;;;;5092986;28;20020;-48
2021/05/17 07:50:36;;;;;;;11.43;6.65;;;;;;;;;;5091957;28;20075;-49
2021/05/17 07:53:02;;;;;;;10.95;7.45;;;;;;;;;;5092624;28;20020;-48
2021/05/17 07:55:28;;;;;;;11.68;6.63;;;;;;;;;;5093187;28;20078;-49
2021/05/17 07:57:54;;;;;;;27.83;19.00;;;;;;;;;;5093088;28;20031;-47
2021/05/17 08:00:20;;;;;;;12.82;5.85;;;;;;;;;;5092460;28;20136;-50
2021/05/17 08:02:46;;;;;;;14.10;5.50;;;;;;;;;;5092960;28;20457;-49
2021/05/17 08:05:13;;;;;;;13.85;6.72;;;;;;;;;;5092806;28;20016;-49
2021/05/17 08:07:39;;;;;;;20.63;12.45;;;;;;;;;;5092452;28;20024;-48
2021/05/17 08:10:05;;;;;;;56.92;27.27;;;;;;;;;;5089981;28;20020;-51
2021/05/17 08:12:31;;;;;;;9.27;4.65;;;;;;;;;;5092921;28;20076;-49
2021/05/17 08:14:58;;;;;;;7.63;4.63;;;;;;;;;;5092465;28;20035;-50
2021/05/17 08:17:24;;;;;;;8.00;3.60;;;;;;;;;;5092658;28;20517;-49
2021/05/17 08:19:50;;;;;;;5.20;3.25;;;;;;;;;;5092621;28;20028;-51
2021/05/17 08:22:16;;;;;;;8.32;3.10;;;;;;;;;;5093076;28;20077;-51
2021/05/17 08:24:42;;;;;;;11.38;3.33;;;;;;;;;;5092896;28;20361;-51
2021/05/17 08:27:09;;;;;;;5.07;2.10;;;;;;;;;;5093161;28;20027;-50
2021/05/17 08:29:36;;;;;;;5.50;3.58;;;;;;;;;;5093141;28;20032;-51
2021/05/17 08:32:09;;;;;;;8.15;3.50;;;;;;;;;;5093056;28;20032;-50
2021/05/17 08:34:35;;;;;;;34.38;25.02;;;;;;;;;;5093078;28;20020;-48
2021/05/17 08:37:01;;;;;;;38.47;26.05;;;;;;;;;;5092909;28;20089;-50
2021/05/17 08:39:28;;;;;;;22.77;9.82;;;;;;;;;;5093341;28;20027;-48
2021/05/17 08:41:56;;;;;;;64.68;47.30;;;;;;;;;;5093444;28;20464;-50
2021/05/17 08:44:23;;;;;;;17.75;8.35;;;;;;;;;;5093107;28;20028;-51
2021/05/17 08:46:51;;;;;;;27.98;15.55;;;;;;;;;;5093206;28;20024;-49
2021/05/17 08:49:18;;;;;;;38.03;13.95;;;;;;;;;;5092943;28;20061;-48
2021/05/17 08:51:45;;;;;;;12.63;7.53;;;;;;;;;;5093078;28;20103;-50
2021/05/17 08:54:12;;;;;;;13.32;6.63;;;;;;;;;;5093070;28;20108;-51
2021/05/17 08:56:43;;;;;;;21.92;12.68;;;;;;;;;;5093112;28;20032;-50
2021/05/17 08:59:10;;;;;;;9.75;5.80;;;;;;;;;;5093345;28;20020;-46
2021/05/17 09:01:36;;;;;;;3.22;2.03;;;;;;;;;;5093042;28;20016;-50
2021/05/17 09:04:04;;;;;;;11.90;3.35;;;;;;;;;;5093086;28;20028;-50
2021/05/17 09:06:36;;;;;;;23.80;10.60;;;;;;;;;;5092587;28;20059;-48
2021/05/17 09:09:04;;;;;;;5.20;3.38;;;;;;;;;;5092787;28;20061;-47
2021/05/17 09:11:32;;;;;;;15.05;7.07;;;;;;;;;;5092577;28;20040;-47
2021/05/17 09:14:08;;;;;;;5.97;1.95;;;;;;;;;;5092753;28;20040;-50
2021/05/17 09:16:48;;;;;;;58.10;49.35;;;;;;;;;;5092939;28;20020;-51
2021/05/17 09:19:15;;;;;;;31.53;20.33;;;;;;;;;;5092896;28;20483;-51
2021/05/17 09:21:59;;;;;;;37.67;23.83;;;;;;;;;;5092871;28;20058;-48
2021/05/17 09:24:35;;;;;;;29.27;19.60;;;;;;;;;;5092730;28;20016;-49
2021/05/17 09:27:02;;;;;;;28.40;14.30;;;;;;;;;;5094634;28;20102;-47
2021/05/17 09:29:28;;;;;;;49.92;27.65;;;;;;;;;;5096250;28;20043;-51
2021/05/17 09:31:57;;;;;;;23.98;13.35;;;;;;;;;;5096500;28;20024;-51
2021/05/17 09:34:43;;;;;;;18.67;11.30;;;;;;;;;;5096346;28;20031;-52
2021/05/17 09:37:10;;;;;;;7.25;3.00;;;;;;;;;;5096091;28;20028;-48
2021/05/17 09:39:38;;;;;;;9.40;5.53;;;;;;;;;;5096277;28;20023;-49
2021/05/17 09:42:04;;;;;;;12.10;6.10;;;;;;;;;;5095763;28;20028;-49
2021/05/17 09:44:31;;;;;;;14.48;9.63;;;;;;;;;;5096193;28;20024;-50
2021/05/17 09:47:05;;;;;;;8.60;5.25;;;;;;;;;;5096171;28;20309;-50
2021/05/17 09:49:34;;;;;;;15.30;8.95;;;;;;;;;;5095795;28;20043;-48
2021/05/17 09:52:24;;;;;;;3.95;2.45;;;;;;;;;;5095880;28;20434;-50
2021/05/17 09:54:59;;;;;;;3.25;1.65;;;;;;;;;;5033372;28;20072;-49
2021/05/17 09:57:28;;;;;;;5.63;3.63;;;;;;;;;;5033545;28;20040;-48
2021/05/17 09:59:55;;;;;;;5.45;3.63;;;;;;;;;;5033444;28;20037;-51
2021/05/17 10:02:27;;;;;;;9.43;6.32;;;;;;;;;;5033504;28;20542;-50
2021/05/17 10:04:54;;;;;;;16.48;10.98;;;;;;;;;;5017085;28;20477;-52
2021/05/17 10:07:20;;;;;;;9.48;5.82;;;;;;;;;;5033250;28;20037;-49
2021/05/17 10:09:48;;;;;;;13.95;8.52;;;;;;;;;;5033132;28;20482;-51
2021/05/17 10:12:15;;;;;;;5.20;3.60;;;;;;;;;;5033107;28;20048;-49
2021/05/17 10:14:41;;;;;;;28.17;16.58;;;;;;;;;;5033109;28;20460;-49
2021/05/17 10:17:07;;;;;;;21.92;11.63;;;;;;;;;;5033270;28;20025;-46
2021/05/17 10:19:34;;;;;;;14.07;9.07;;;;;;;;;;5033111;28;20037;-49
2021/05/17 10:22:00;;;;;;;7.07;5.00;;;;;;;;;;5032891;28;20095;-52
2021/05/17 10:24:26;;;;;;;11.02;5.53;;;;;;;;;;5033027;28;20026;-53
2021/05/17 10:26:53;;;;;;;4.85;3.33;;;;;;;;;;5033013;28;20504;-51
2021/05/17 10:29:21;;;;;;;21.60;8.65;;;;;;;;;;5032895;28;20563;-53
2021/05/17 10:31:54;;;;;;;9.68;6.28;;;;;;;;;;5062349;28;20039;-51
2021/05/17 10:34:20;;;;;;;8.95;5.00;;;;;;;;;;5095089;28;20024;-51
2021/05/17 10:36:54;;;;;;;12.93;8.63;;;;;;;;;;5094741;28;20065;-49
2021/05/17 10:39:29;;;;;;;5.47;3.70;;;;;;;;;;5095281;28;20453;-51
2021/05/17 10:47:49;;;;;;;11.68;7.07;;;;;;;;;;5095191;28;20601;-51
2021/05/17 10:50:21;;;;;;;47.70;26.17;;;;;;;;;;5094781;28;20093;-51
2021/05/17 10:52:47;;;;;;;21.50;13.45;;;;;;;;;;5094764;28;20020;-50
2021/05/17 10:55:15;;;;;;;9.13;5.47;;;;;;;;;;5094640;28;20027;-52
2021/05/17 10:58:08;;;;;;;4.40;2.30;;;;;;;;;;5095081;28;20032;-52
2021/05/17 11:00:36;;;;;;;16.90;7.65;;;;;;;;;;5094806;28;20074;-50
2021/05/17 11:03:16;;;;;;;19.20;12.55;;;;;;;;;;5094701;28;20095;-45
2021/05/17 11:05:45;;;;;;;10.35;6.25;;;;;;;;;;5094499;28;20020;-48
2021/05/17 11:08:13;;;;;;;23.48;11.95;;;;;;;;;;5094281;28;20036;-52
2021/05/17 11:10:47;;;;;;;206.95;130.27;;;;;;;;;;5094372;28;20048;-51
2021/05/17 11:13:20;;;;;;;12.93;8.13;;;;;;;;;;5094448;28;20095;-51
2021/05/17 11:15:47;;;;;;;10.90;7.65;;;;;;;;;;5094304;28;20028;-49
2021/05/17 11:18:14;;;;;;;5.70;3.75;;;;;;;;;;5093615;28;20068;-49
2021/05/17 11:23:10;;;;;;;6.70;4.20;;;;;;;;;;5093666;28;20385;-51
2021/05/17 11:25:49;;;;;;;27.55;16.02;;;;;;;;;;5093709;28;20024;-53
2021/05/17 11:28:15;;;;;;;4.05;3.17;;;;;;;;;;5091952;28;20079;-48
2021/05/17 11:30:42;;;;;;;16.08;10.20;;;;;;;;;;5093642;28;20016;-50
2021/05/17 11:33:18;;;;;;;168.73;122.07;;;;;;;;;;5090899;28;20028;-50
2021/05/17 11:36:20;;;;;;;14.20;8.77;;;;;;;;;;5093823;28;20113;-49
2021/05/17 11:39:01;;;;;;;34.75;21.75;;;;;;;;;;5011404;28;20040;-51
2021/05/17 11:41:28;;;;;;;24.42;15.70;;;;;;;;;;5008524;28;20034;-47
2021/05/17 11:43:59;;;;;;;37.17;23.15;;;;;;;;;;5011281;28;20025;-50
2021/05/17 11:46:25;;;;;;;16.70;11.63;;;;;;;;;;5011176;28;20061;-51
2021/05/17 11:48:54;;;;;;;17.42;9.80;;;;;;;;;;5010621;28;20045;-49
2021/05/17 11:51:24;;;;;;;16.00;8.73;;;;;;;;;;5011233;28;20026;-51
2021/05/17 11:53:50;;;;;;;15.90;8.73;;;;;;;;;;5011228;28;20117;-53
2021/05/17 11:56:17;;;;;;;8.65;3.92;;;;;;;;;;5011005;28;20068;-50
2021/05/17 11:58:43;;;;;;;7.97;3.22;;;;;;;;;;5010707;28;20026;-52
2021/05/17 12:01:15;;;;;;;3.65;3.08;;;;;;;;;;5011094;28;20026;-53
2021/05/17 12:03:44;;;;;;;9.95;5.13;;;;;;;;;;5015655;28;20032;-54
2021/05/17 12:06:12;;;;;;;15.80;9.38;;;;;;;;;;5030586;28;20468;-50
2021/05/17 12:08:38;;;;;;;44.00;23.27;;;;;;;;;;5030472;28;20525;-53
2021/05/17 12:11:14;;;;;;;11.95;6.20;;;;;;;;;;5030385;28;20125;-48
2021/05/17 12:13:46;;;;;;;43.17;25.17;;;;;;;;;;5102367;28;20036;-48
2021/05/17 12:16:23;;;;;;;10.77;7.28;;;;;;;;;;5113645;28;20020;-50
2021/05/17 12:18:56;;;;;;;13.63;6.88;;;;;;;;;;5113531;28;20027;-51
2021/05/17 12:21:24;;;;;;;22.27;12.52;;;;;;;;;;5113490;28;20067;-51
2021/05/17 12:23:50;;;;;;;12.68;5.65;;;;;;;;;;5113570;28;20027;-51
2021/05/17 12:26:17;;;;;;;29.83;16.20;;;;;;;;;;5113549;28;20032;-54
2021/05/17 12:28:43;;;;;;;8.02;4.30;;;;;;;;;;5113343;28;20030;-52
2021/05/17 12:31:10;;;;;;;36.40;22.17;;;;;;;;;;5109391;28;20031;-49
2021/05/17 12:33:42;;;;;;;20.52;11.35;;;;;;;;;;5109645;28;20067;-52
2021/05/17 12:36:08;;;;;;;28.40;10.75;;;;;;;;;;5113409;28;20063;-52
2021/05/17 12:38:35;;;;;;;7.18;4.97;;;;;;;;;;5108469;28;20054;-53
2021/05/17 12:41:02;;;;;;;12.13;4.93;;;;;;;;;;5112143;28;20012;-49
2021/05/17 12:43:35;;;;;;;21.70;5.93;;;;;;;;;;5113779;28;20031;-53
2021/05/17 12:46:02;;;;;;;18.83;3.97;;;;;;;;;;5113597;28;20027;-51
2021/05/17 12:48:41;;;;;;;14.07;4.57;;;;;;;;;;5113362;28;20062;-54
2021/05/17 12:51:18;;;;;;;27.05;11.18;;;;;;;;;;5113502;28;20032;-53
2021/05/17 12:53:45;;;;;;;12.63;3.90;;;;;;;;;;5095379;28;20024;-52
2021/05/17 12:56:22;;;;;;;22.88;14.35;;;;;;;;;;5092456;28;20073;-52
2021/05/17 12:58:48;;;;;;;13.02;5.53;;;;;;;;;;5090081;28;20528;-51
2021/05/17 13:01:15;;;;;;;23.45;12.00;;;;;;;;;;5093158;28;20523;-51
2021/05/17 13:03:46;;;;;;;43.58;26.95;;;;;;;;;;5096244;28;20027;-53
2021/05/17 13:06:24;;;;;;;53.33;30.88;;;;;;;;;;5096601;28;20435;-54
2021/05/17 13:09:10;;;;;;;26.55;13.80;;;;;;;;;;5093747;28;20023;-54
2021/05/17 13:11:43;;;;;;;76.35;38.67;;;;;;;;;;5080124;28;20089;-54
2021/05/17 13:14:12;;;;;;;56.72;30.52;;;;;;;;;;5096125;28;20043;-54
2021/05/17 13:16:42;;;;;;;37.05;21.85;;;;;;;;;;5096060;28;20091;-51
2021/05/17 13:30:32;;;;;;;18.38;8.63;;;;;;;;;;5033555;28;21130;-53
2021/05/17 13:32:58;;;;;;;9.40;4.65;;;;;;;;;;5032393;28;20024;-51
2021/05/17 13:35:25;;;;;;;8.70;4.40;;;;;;;;;;5008270;28;20044;-49
2021/05/17 13:37:51;;;;;;;8.38;3.95;;;;;;;;;;5003448;28;20409;-47
2021/05/17 13:40:17;;;;;;;7.07;3.00;;;;;;;;;;5001812;28;20881;-48
2021/05/17 13:42:43;;;;;;;5.97;2.20;;;;;;;;;;5002279;28;20129;-47
2021/05/17 13:45:12;;;;;;;3.30;1.90;;;;;;;;;;5001913;28;20097;-51
2021/05/17 13:47:38;;;;;;;1.08;0.73;;;;;;;;;;5002081;28;20057;-48
2021/05/17 13:50:06;;;;;;;4.47;2.15;;;;;;;;;;5001521;28;20046;-48
2021/05/17 13:52:32;;;;;;;9.93;5.70;;;;;;;;;;5002013;28;20044;-48
2021/05/17 13:54:58;;;;;;;9.82;5.20;;;;;;;;;;5001721;28;20685;-51
2021/05/17 13:57:24;;;;;;;7.20;3.85;;;;;;;;;;5001933;28;20033;-51
2021/05/17 13:59:50;;;;;;;8.55;4.30;;;;;;;;;;5001904;28;20478;-48
2021/05/17 14:02:18;;;;;;;5.10;2.90;;;;;;;;;;5041689;28;20032;-47
2021/05/17 14:04:44;;;;;;;6.57;3.15;;;;;;;;;;5063353;28;20040;-47
2021/05/17 14:07:11;;;;;;;6.25;2.03;;;;;;;;;;5063576;28;20868;-51
2021/05/17 14:09:37;;;;;;;3.15;1.95;;;;;;;;;;5063260;28;20059;-47
2021/05/17 14:12:03;;;;;;;4.63;2.17;;;;;;;;;;5062917;28;20084;-51
2021/05/17 14:14:29;;;;;;;8.05;3.08;;;;;;;;;;5062907;28;20093;-47
2021/05/17 14:16:56;;;;;;;2.75;1.55;;;;;;;;;;5065113;28;20016;-48
2021/05/17 14:19:23;;;;;;;3.05;1.35;;;;;;;;;;5062987;28;20496;-49
2021/05/17 14:21:50;;;;;;;3.65;1.38;;;;;;;;;;5063965;28;20020;-48
2021/05/17 14:24:16;;;;;;;0.55;0.50;;;;;;;;;;5064026;28;20052;-48
2021/05/17 14:26:42;;;;;;;8.10;0.90;;;;;;;;;;5064480;28;20099;-52
2021/05/17 14:29:08;;;;;;;1.52;1.00;;;;;;;;;;5063073;28;20360;-50
2021/05/17 14:31:35;;;;;;;2.17;1.27;;;;;;;;;;5062991;28;20027;-52
2021/05/17 14:34:01;;;;;;;1.60;0.90;;;;;;;;;;5063093;28;20101;-51
2021/05/17 14:36:34;;;;;;;1.63;1.00;;;;;;;;;;5062632;28;20100;-52
2021/05/17 14:39:01;;;;;;;1.52;0.80;;;;;;;;;;5063903;28;20016;-48
2021/05/17 14:41:27;;;;;;;2.70;1.40;;;;;;;;;;5062438;28;20058;-49
2021/05/17 14:43:53;;;;;;;2.88;1.98;;;;;;;;;;5062524;28;20083;-51
2021/05/17 14:46:20;;;;;;;1.85;1.17;;;;;;;;;;5063361;28;20531;-49
2021/05/17 14:48:46;;;;;;;3.55;1.50;;;;;;;;;;5062481;28;20515;-51
2021/05/17 14:51:13;;;;;;;4.45;1.63;;;;;;;;;;5063620;28;20025;-51
2021/05/17 14:53:39;;;;;;;2.78;1.13;;;;;;;;;;5063269;28;20412;-50
2021/05/17 14:56:06;;;;;;;2.70;1.50;;;;;;;;;;5063191;28;20028;-51
2021/05/17 14:58:33;;;;;;;13.45;7.28;;;;;;;;;;5062516;28;20107;-48
2021/05/17 15:00:59;;;;;;;12.55;6.15;;;;;;;;;;5062645;28;20185;-50
2021/05/17 15:03:25;;;;;;;39.00;21.83;;;;;;;;;;5062113;28;20597;-47
2021/05/17 15:05:51;;;;;;;47.20;25.92;;;;;;;;;;5062403;28;20039;-46
2021/05/17 15:08:17;;;;;;;21.02;10.80;;;;;;;;;;5061877;28;20032;-47
2021/05/17 15:10:43;;;;;;;7.93;3.38;;;;;;;;;;5061892;28;20028;-51
2021/05/17 15:13:10;;;;;;;10.88;6.78;;;;;;;;;;5062301;28;20480;-47